sensor_id;sensor_type;location;lat;lon;timestamp;temperature;humidity
16728;DHT22;8482;54.396;18.590;2022-11-20T00:01:29;1.90;99.90
16728;DHT22;8482;54.396;18.590;2022-11-20T00:03:56;2.00;99.90
16728;DHT22;8482;54.396;18.590;2022-11-20T00:06:27;2.00;99.90
16728;DHT22;8482;54.396;18.590;2022-11-20T00:08:58;2.00;99.90
16728;DHT22;8482;54.396;18.590;2022-11-20T00:11:26;1.90;99.90
16728;DHT22;8482;54.396;18.590;2022-11-20T00:13:56;2.00;99.90
16728;DHT22;8482;54.396;18.590;2022-11-20T00:16:24;2.00;99.90
16728;DHT22;8482;54.396;18.590;2022-11-20T00:18:52;2.00;99.90
16728;DHT22;8482;54.396;18.590;2022-11-20T00:21:20;2.00;99.90
16728;DHT22;8482;54.396;18.590;2022-11-20T00:23:51;2.00;99.90
16728;DHT22;8482;54.396;18.590;2022-11-20T00:26:21;2.00;99.90
16728;DHT22;8482;54.396;18.590;2022-11-20T00:28:56;2.00;99.90
16728;DHT22;8482;54.396;18.590;2022-11-20T00:31:24;2.00;99.90
16728;DHT22;8482;54.396;18.590;2022-11-20T00:33:50;2.00;99.90
16728;DHT22;8482;54.396;18.590;2022-11-20T00:36:19;2.00;99.90
16728;DHT22;8482;54.396;18.590;2022-11-20T00:38:50;2.00;99.90
16728;DHT22;8482;54.396;18.590;2022-11-20T00:41:17;2.00;99.90
16728;DHT22;8482;54.396;18.590;2022-11-20T00:43:43;2.00;99.90
16728;DHT22;8482;54.396;18.590;2022-11-20T00:46:12;2.00;99.90
16728;DHT22;8482;54.396;18.590;2022-11-20T00:48:40;2.00;99.90
16728;DHT22;8482;54.396;18.590;2022-11-20T00:51:06;2.00;99.90
16728;DHT22;8482;54.396;18.590;2022-11-20T00:53:32;2.00;99.90
16728;DHT22;8482;54.396;18.590;2022-11-20T00:56:00;2.00;99.90
16728;DHT22;8482;54.396;18.590;2022-11-20T00:58:36;2.00;99.90
16728;DHT22;8482;54.396;18.590;2022-11-20T01:01:15;2.00;99.90
16728;DHT22;8482;54.396;18.590;2022-11-20T01:03:45;2.00;99.90
16728;DHT22;8482;54.396;18.590;2022-11-20T01:08:44;2.00;99.90
16728;DHT22;8482;54.396;18.590;2022-11-20T01:11:17;2.00;99.90
16728;DHT22;8482;54.396;18.590;2022-11-20T01:13:46;2.00;99.90
16728;DHT22;8482;54.396;18.590;2022-11-20T01:18:49;1.90;99.90
16728;DHT22;8482;54.396;18.590;2022-11-20T01:21:28;2.00;99.90
16728;DHT22;8482;54.396;18.590;2022-11-20T01:23:59;2.00;99.90
16728;DHT22;8482;54.396;18.590;2022-11-20T01:26:29;2.00;99.90
16728;DHT22;8482;54.396;18.590;2022-11-20T01:28:57;2.00;99.90
16728;DHT22;8482;54.396;18.590;2022-11-20T01:31:25;2.00;99.90
16728;DHT22;8482;54.396;18.590;2022-11-20T01:34:01;1.90;99.90
16728;DHT22;8482;54.396;18.590;2022-11-20T01:36:32;1.90;99.90
16728;DHT22;8482;54.396;18.590;2022-11-20T01:39:00;1.90;99.90
16728;DHT22;8482;54.396;18.590;2022-11-20T01:41:31;1.90;99.90
16728;DHT22;8482;54.396;18.590;2022-11-20T01:44:19;1.90;99.90
16728;DHT22;8482;54.396;18.590;2022-11-20T01:47:02;1.90;99.90
16728;DHT22;8482;54.396;18.590;2022-11-20T01:52:14;1.90;99.90
16728;DHT22;8482;54.396;18.590;2022-11-20T01:54:56;1.90;99.90
16728;DHT22;8482;54.396;18.590;2022-11-20T01:57:29;1.90;99.90
16728;DHT22;8482;54.396;18.590;2022-11-20T02:00:04;1.90;99.90
16728;DHT22;8482;54.396;18.590;2022-11-20T02:02:34;1.90;99.90
16728;DHT22;8482;54.396;18.590;2022-11-20T02:05:04;1.90;99.90
16728;DHT22;8482;54.396;18.590;2022-11-20T02:07:40;1.90;99.90
16728;DHT22;8482;54.396;18.590;2022-11-20T02:10:07;1.90;99.90
16728;DHT22;8482;54.396;18.590;2022-11-20T02:12:33;1.90;99.90
16728;DHT22;8482;54.396;18.590;2022-11-20T02:15:17;1.90;99.90
16728;DHT22;8482;54.396;18.590;2022-11-20T02:17:43;1.90;99.90
16728;DHT22;8482;54.396;18.590;2022-11-20T02:20:09;2.00;99.90
16728;DHT22;8482;54.396;18.590;2022-11-20T02:22:41;1.90;99.90
16728;DHT22;8482;54.396;18.590;2022-11-20T02:25:16;1.90;99.90
16728;DHT22;8482;54.396;18.590;2022-11-20T02:27:44;1.90;99.90
16728;DHT22;8482;54.396;18.590;2022-11-20T02:30:10;1.90;99.90
16728;DHT22;8482;54.396;18.590;2022-11-20T02:32:37;1.90;99.90
16728;DHT22;8482;54.396;18.590;2022-11-20T02:37:58;2.00;99.90
16728;DHT22;8482;54.396;18.590;2022-11-20T02:40:26;2.00;99.90
16728;DHT22;8482;54.396;18.590;2022-11-20T02:42:53;2.00;99.90
16728;DHT22;8482;54.396;18.590;2022-11-20T02:45:19;2.00;99.90
16728;DHT22;8482;54.396;18.590;2022-11-20T02:47:45;2.00;99.90
16728;DHT22;8482;54.396;18.590;2022-11-20T02:50:11;2.00;99.90
16728;DHT22;8482;54.396;18.590;2022-11-20T02:52:37;2.00;99.90
16728;DHT22;8482;54.396;18.590;2022-11-20T02:55:03;2.00;99.90
16728;DHT22;8482;54.396;18.590;2022-11-20T02:57:29;2.00;99.90
16728;DHT22;8482;54.396;18.590;2022-11-20T02:59:55;2.00;99.90
16728;DHT22;8482;54.396;18.590;2022-11-20T03:02:21;2.00;99.90
16728;DHT22;8482;54.396;18.590;2022-11-20T03:04:47;2.00;99.90
16728;DHT22;8482;54.396;18.590;2022-11-20T03:07:13;2.00;99.90
16728;DHT22;8482;54.396;18.590;2022-11-20T03:09:38;2.00;99.90
16728;DHT22;8482;54.396;18.590;2022-11-20T03:12:05;2.00;99.90
16728;DHT22;8482;54.396;18.590;2022-11-20T03:14:31;2.00;99.90
16728;DHT22;8482;54.396;18.590;2022-11-20T03:16:56;2.00;99.90
16728;DHT22;8482;54.396;18.590;2022-11-20T03:19:23;2.00;99.90
16728;DHT22;8482;54.396;18.590;2022-11-20T03:21:49;2.00;99.90
16728;DHT22;8482;54.396;18.590;2022-11-20T03:24:15;2.00;99.90
16728;DHT22;8482;54.396;18.590;2022-11-20T03:26:41;2.00;99.90
16728;DHT22;8482;54.396;18.590;2022-11-20T03:29:07;2.00;99.90
16728;DHT22;8482;54.396;18.590;2022-11-20T03:31:36;2.00;99.90
16728;DHT22;8482;54.396;18.590;2022-11-20T03:34:03;2.00;99.90
16728;DHT22;8482;54.396;18.590;2022-11-20T03:36:30;2.00;99.90
16728;DHT22;8482;54.396;18.590;2022-11-20T03:38:57;2.00;99.90
16728;DHT22;8482;54.396;18.590;2022-11-20T03:41:27;2.00;99.90
16728;DHT22;8482;54.396;18.590;2022-11-20T03:43:57;2.00;99.90
16728;DHT22;8482;54.396;18.590;2022-11-20T03:46:25;2.00;99.90
16728;DHT22;8482;54.396;18.590;2022-11-20T03:48:52;2.00;99.90
16728;DHT22;8482;54.396;18.590;2022-11-20T03:51:23;2.00;99.90
16728;DHT22;8482;54.396;18.590;2022-11-20T03:53:55;2.00;99.90
16728;DHT22;8482;54.396;18.590;2022-11-20T03:56:25;2.00;99.90
16728;DHT22;8482;54.396;18.590;2022-11-20T03:58:53;2.00;99.90
16728;DHT22;8482;54.396;18.590;2022-11-20T04:01:21;2.00;99.90
16728;DHT22;8482;54.396;18.590;2022-11-20T04:03:52;2.00;99.90
16728;DHT22;8482;54.396;18.590;2022-11-20T04:06:22;2.00;99.90
16728;DHT22;8482;54.396;18.590;2022-11-20T04:08:50;2.00;99.90
16728;DHT22;8482;54.396;18.590;2022-11-20T04:11:27;2.00;99.90
16728;DHT22;8482;54.396;18.590;2022-11-20T04:14:00;2.00;99.90
16728;DHT22;8482;54.396;18.590;2022-11-20T04:16:30;2.00;99.90
16728;DHT22;8482;54.396;18.590;2022-11-20T04:18:59;2.00;99.90
16728;DHT22;8482;54.396;18.590;2022-11-20T04:21:26;2.00;99.90
16728;DHT22;8482;54.396;18.590;2022-11-20T04:23:53;2.00;99.90
16728;DHT22;8482;54.396;18.590;2022-11-20T04:26:21;2.00;99.90
16728;DHT22;8482;54.396;18.590;2022-11-20T04:28:48;2.00;99.90
16728;DHT22;8482;54.396;18.590;2022-11-20T04:31:19;2.00;99.90
16728;DHT22;8482;54.396;18.590;2022-11-20T04:33:47;2.00;99.90
16728;DHT22;8482;54.396;18.590;2022-11-20T04:36:21;2.00;99.90
16728;DHT22;8482;54.396;18.590;2022-11-20T04:38:56;2.00;99.90
16728;DHT22;8482;54.396;18.590;2022-11-20T04:41:28;2.00;99.90
16728;DHT22;8482;54.396;18.590;2022-11-20T04:43:58;2.00;99.90
16728;DHT22;8482;54.396;18.590;2022-11-20T04:46:33;2.00;99.90
16728;DHT22;8482;54.396;18.590;2022-11-20T04:49:02;2.00;99.90
16728;DHT22;8482;54.396;18.590;2022-11-20T04:51:28;2.00;99.90
16728;DHT22;8482;54.396;18.590;2022-11-20T04:53:54;2.00;99.90
16728;DHT22;8482;54.396;18.590;2022-11-20T04:56:20;2.00;99.90
16728;DHT22;8482;54.396;18.590;2022-11-20T04:58:46;2.00;99.90
16728;DHT22;8482;54.396;18.590;2022-11-20T05:01:17;2.00;99.90
16728;DHT22;8482;54.396;18.590;2022-11-20T05:03:48;1.90;99.90
16728;DHT22;8482;54.396;18.590;2022-11-20T05:06:15;1.90;99.90
16728;DHT22;8482;54.396;18.590;2022-11-20T05:08:43;1.90;99.90
16728;DHT22;8482;54.396;18.590;2022-11-20T05:11:11;1.90;99.90
16728;DHT22;8482;54.396;18.590;2022-11-20T05:13:40;1.80;99.90
16728;DHT22;8482;54.396;18.590;2022-11-20T05:16:09;1.80;99.90
16728;DHT22;8482;54.396;18.590;2022-11-20T05:18:39;1.80;99.90
16728;DHT22;8482;54.396;18.590;2022-11-20T05:21:07;1.70;99.90
16728;DHT22;8482;54.396;18.590;2022-11-20T05:23:35;1.70;99.90
16728;DHT22;8482;54.396;18.590;2022-11-20T05:26:02;1.70;99.90
16728;DHT22;8482;54.396;18.590;2022-11-20T05:28:30;1.60;99.90
16728;DHT22;8482;54.396;18.590;2022-11-20T05:31:03;1.60;99.90
16728;DHT22;8482;54.396;18.590;2022-11-20T05:33:34;1.60;99.90
16728;DHT22;8482;54.396;18.590;2022-11-20T05:36:01;1.50;99.90
16728;DHT22;8482;54.396;18.590;2022-11-20T05:38:28;1.50;99.90
16728;DHT22;8482;54.396;18.590;2022-11-20T05:40:54;1.50;99.90
16728;DHT22;8482;54.396;18.590;2022-11-20T05:43:19;1.40;99.90
16728;DHT22;8482;54.396;18.590;2022-11-20T05:45:53;1.40;99.90
16728;DHT22;8482;54.396;18.590;2022-11-20T05:48:19;1.30;99.90
16728;DHT22;8482;54.396;18.590;2022-11-20T05:50:45;1.30;99.90
16728;DHT22;8482;54.396;18.590;2022-11-20T05:53:12;1.30;99.90
16728;DHT22;8482;54.396;18.590;2022-11-20T05:55:37;1.30;99.90
16728;DHT22;8482;54.396;18.590;2022-11-20T05:58:03;1.20;99.90
16728;DHT22;8482;54.396;18.590;2022-11-20T06:00:29;1.20;99.90
16728;DHT22;8482;54.396;18.590;2022-11-20T06:02:55;1.20;99.90
16728;DHT22;8482;54.396;18.590;2022-11-20T06:05:21;1.20;99.90
16728;DHT22;8482;54.396;18.590;2022-11-20T06:07:46;1.20;99.90
16728;DHT22;8482;54.396;18.590;2022-11-20T06:10:12;1.20;99.90
16728;DHT22;8482;54.396;18.590;2022-11-20T06:12:38;1.20;99.90
16728;DHT22;8482;54.396;18.590;2022-11-20T06:15:05;1.20;99.90
16728;DHT22;8482;54.396;18.590;2022-11-20T06:17:31;1.10;99.90
16728;DHT22;8482;54.396;18.590;2022-11-20T06:19:57;1.10;99.90
16728;DHT22;8482;54.396;18.590;2022-11-20T06:22:23;1.10;99.90
16728;DHT22;8482;54.396;18.590;2022-11-20T06:24:48;1.10;99.90
16728;DHT22;8482;54.396;18.590;2022-11-20T06:27:14;1.10;99.90
16728;DHT22;8482;54.396;18.590;2022-11-20T06:29:41;1.10;99.90
16728;DHT22;8482;54.396;18.590;2022-11-20T06:32:06;1.10;99.90
16728;DHT22;8482;54.396;18.590;2022-11-20T06:34:32;1.00;99.90
16728;DHT22;8482;54.396;18.590;2022-11-20T06:36:58;1.00;99.90
16728;DHT22;8482;54.396;18.590;2022-11-20T06:39:24;1.00;99.90
16728;DHT22;8482;54.396;18.590;2022-11-20T06:41:49;1.00;99.90
16728;DHT22;8482;54.396;18.590;2022-11-20T06:44:15;1.00;99.90
16728;DHT22;8482;54.396;18.590;2022-11-20T06:46:41;1.00;99.90
16728;DHT22;8482;54.396;18.590;2022-11-20T06:49:06;1.00;99.90
16728;DHT22;8482;54.396;18.590;2022-11-20T06:51:32;1.00;99.90
16728;DHT22;8482;54.396;18.590;2022-11-20T06:53:58;1.00;99.90
16728;DHT22;8482;54.396;18.590;2022-11-20T06:56:26;1.00;99.90
16728;DHT22;8482;54.396;18.590;2022-11-20T06:58:52;1.00;99.90
16728;DHT22;8482;54.396;18.590;2022-11-20T07:01:17;1.00;99.90
16728;DHT22;8482;54.396;18.590;2022-11-20T07:03:43;1.00;99.90
16728;DHT22;8482;54.396;18.590;2022-11-20T07:06:10;1.00;99.90
16728;DHT22;8482;54.396;18.590;2022-11-20T07:08:36;1.00;99.90
16728;DHT22;8482;54.396;18.590;2022-11-20T07:11:04;1.00;99.90
16728;DHT22;8482;54.396;18.590;2022-11-20T07:13:31;1.00;99.90
16728;DHT22;8482;54.396;18.590;2022-11-20T07:16:02;1.00;99.90
16728;DHT22;8482;54.396;18.590;2022-11-20T07:18:30;1.10;99.90
16728;DHT22;8482;54.396;18.590;2022-11-20T07:20:56;1.10;99.90
16728;DHT22;8482;54.396;18.590;2022-11-20T07:23:24;1.10;99.90
16728;DHT22;8482;54.396;18.590;2022-11-20T07:25:50;1.20;99.90
16728;DHT22;8482;54.396;18.590;2022-11-20T07:28:16;1.20;99.90
16728;DHT22;8482;54.396;18.590;2022-11-20T07:30:42;1.20;99.90
16728;DHT22;8482;54.396;18.590;2022-11-20T07:33:07;1.30;99.90
16728;DHT22;8482;54.396;18.590;2022-11-20T07:35:33;1.30;99.90
16728;DHT22;8482;54.396;18.590;2022-11-20T07:37:59;1.30;99.90
16728;DHT22;8482;54.396;18.590;2022-11-20T07:40:25;1.30;99.90
16728;DHT22;8482;54.396;18.590;2022-11-20T07:42:52;1.40;99.90
16728;DHT22;8482;54.396;18.590;2022-11-20T07:45:21;1.40;99.90
16728;DHT22;8482;54.396;18.590;2022-11-20T07:47:49;1.40;99.90
16728;DHT22;8482;54.396;18.590;2022-11-20T07:50:16;1.40;99.90
16728;DHT22;8482;54.396;18.590;2022-11-20T07:52:42;1.40;99.90
16728;DHT22;8482;54.396;18.590;2022-11-20T07:55:09;1.40;99.90
16728;DHT22;8482;54.396;18.590;2022-11-20T07:57:36;1.50;99.90
16728;DHT22;8482;54.396;18.590;2022-11-20T08:00:06;1.50;99.90
16728;DHT22;8482;54.396;18.590;2022-11-20T08:02:40;1.50;99.90
16728;DHT22;8482;54.396;18.590;2022-11-20T08:05:07;1.50;99.90
16728;DHT22;8482;54.396;18.590;2022-11-20T08:07:42;1.50;99.90
16728;DHT22;8482;54.396;18.590;2022-11-20T08:10:10;1.50;99.90
16728;DHT22;8482;54.396;18.590;2022-11-20T08:13:04;1.60;99.90
16728;DHT22;8482;54.396;18.590;2022-11-20T08:15:53;1.60;99.90
16728;DHT22;8482;54.396;18.590;2022-11-20T08:18:19;1.60;99.90
16728;DHT22;8482;54.396;18.590;2022-11-20T08:20:45;1.60;99.90
16728;DHT22;8482;54.396;18.590;2022-11-20T08:23:11;1.70;99.90
16728;DHT22;8482;54.396;18.590;2022-11-20T08:25:37;1.70;99.90
16728;DHT22;8482;54.396;18.590;2022-11-20T08:28:06;1.70;99.90
16728;DHT22;8482;54.396;18.590;2022-11-20T08:30:34;1.70;99.90
16728;DHT22;8482;54.396;18.590;2022-11-20T08:33:05;1.80;99.90
16728;DHT22;8482;54.396;18.590;2022-11-20T08:35:37;1.70;99.90
16728;DHT22;8482;54.396;18.590;2022-11-20T08:38:04;1.70;99.90
16728;DHT22;8482;54.396;18.590;2022-11-20T08:40:33;1.80;99.90
16728;DHT22;8482;54.396;18.590;2022-11-20T08:42:59;1.80;99.90
16728;DHT22;8482;54.396;18.590;2022-11-20T08:45:26;1.80;99.90
16728;DHT22;8482;54.396;18.590;2022-11-20T08:47:51;1.80;99.90
16728;DHT22;8482;54.396;18.590;2022-11-20T08:50:17;1.90;99.90
16728;DHT22;8482;54.396;18.590;2022-11-20T08:52:43;1.90;99.90
16728;DHT22;8482;54.396;18.590;2022-11-20T08:55:09;1.90;99.90
16728;DHT22;8482;54.396;18.590;2022-11-20T08:57:36;1.90;99.90
16728;DHT22;8482;54.396;18.590;2022-11-20T09:00:07;2.00;99.90
16728;DHT22;8482;54.396;18.590;2022-11-20T09:02:33;2.00;99.90
16728;DHT22;8482;54.396;18.590;2022-11-20T09:04:59;2.00;99.90
16728;DHT22;8482;54.396;18.590;2022-11-20T09:07:27;2.00;99.90
16728;DHT22;8482;54.396;18.590;2022-11-20T09:09:53;2.00;99.90
16728;DHT22;8482;54.396;18.590;2022-11-20T09:12:19;2.10;99.90
16728;DHT22;8482;54.396;18.590;2022-11-20T09:14:46;2.10;99.90
16728;DHT22;8482;54.396;18.590;2022-11-20T09:17:12;2.10;99.90
16728;DHT22;8482;54.396;18.590;2022-11-20T09:19:39;2.10;99.90
16728;DHT22;8482;54.396;18.590;2022-11-20T09:22:05;2.10;99.90
16728;DHT22;8482;54.396;18.590;2022-11-20T09:24:31;2.20;99.90
16728;DHT22;8482;54.396;18.590;2022-11-20T09:26:57;2.20;99.90
16728;DHT22;8482;54.396;18.590;2022-11-20T09:29:23;2.20;99.90
16728;DHT22;8482;54.396;18.590;2022-11-20T09:31:48;2.20;99.90
16728;DHT22;8482;54.396;18.590;2022-11-20T09:34:14;2.20;99.90
16728;DHT22;8482;54.396;18.590;2022-11-20T09:36:40;2.30;99.90
16728;DHT22;8482;54.396;18.590;2022-11-20T09:39:05;2.30;99.90
16728;DHT22;8482;54.396;18.590;2022-11-20T09:50:44;2.30;99.90
16728;DHT22;8482;54.396;18.590;2022-11-20T09:55:50;2.40;99.90
16728;DHT22;8482;54.396;18.590;2022-11-20T09:58:42;2.40;99.90
16728;DHT22;8482;54.396;18.590;2022-11-20T10:01:19;2.40;99.90
